Strona główna
METAR-TAF:

METAR-TAF

Lotnisko :

Port lotniczy Windawa

Windawa, Łotwa

Szerokość geograficzna: 57-21-28N, Długość geograficzna: 021-32-39E, wysokość: 6 m

Aktualna obserwacja pogody

Raport powstał 36 minut temu, godzina 16:50 UTC
Wiatr 10 kt od południowo-południowy zachód
Temperatura 18°C
Wilgotność 68%
Ciśnienie 1014 hPa
Widzialność 10 km lub więcej
Brak chmur poniżej 1500 m i brak chmur cumulonimbus

METAR: EVVA 181650Z AUTO 21010KT CAVOK 18/12 Q1014

czas: 20:26 (17:26 UTC)


TAF: brakujący

Obserwacja i prognoza pogody dla ponad 4000 lotnisk (raport METAR i TAF).

Dostępne stacje oznaczono żółtymi i czerwonymi punktami na mapie.

Najedź kursorem aby zobaczyć nazwę stacji.

Kliknij aby zobaczyć obserwacje i prognozy pogody.

Aby zmienić mapę: kliknij na zielony przycisk z czarnym krzyżykiem, aby powiększyć; na zielony przycisk z myślnikiem, aby pomniejszyć; na zielone strzałki, aby przejść do map sąsiednich.


METAR-TAF: